Time;durP1;ratioP1;P1;durP2;ratioP2;P2;SDS_P1;SDS_P2;PMS_P1;PMS_P2;Temp;Humidity;BMP_temperature;BMP_pressure;BME280_temperature;BME280_humidity;BME280_pressure;Samples;Min_cycle;Max_cycle;Signal;HPM_P1;HPM_P2
2021/09/14 00:01:01;;;;;;;13.57;10.87;;;;;;;;;;4991653;28;20425;-72
2021/09/14 00:03:27;;;;;;;13.63;11.20;;;;;;;;;;4991769;28;20425;-72
2021/09/14 00:05:53;;;;;;;14.20;11.93;;;;;;;;;;4993227;28;20408;-72
2021/09/14 00:08:19;;;;;;;14.53;12.00;;;;;;;;;;4991091;28;20856;-72
2021/09/14 00:10:45;;;;;;;13.20;10.60;;;;;;;;;;4993221;28;20405;-72
2021/09/14 00:13:11;;;;;;;13.60;12.10;;;;;;;;;;4992179;28;20456;-72
2021/09/14 00:15:37;;;;;;;13.17;11.40;;;;;;;;;;4993229;28;20401;-72
2021/09/14 00:18:04;;;;;;;13.60;10.77;;;;;;;;;;4986929;28;20526;-72
2021/09/14 00:20:30;;;;;;;12.90;10.90;;;;;;;;;;4974050;28;20401;-71
2021/09/14 00:22:56;;;;;;;13.33;11.67;;;;;;;;;;4979753;28;20443;-72
2021/09/14 00:25:22;;;;;;;12.63;10.40;;;;;;;;;;4996610;28;20905;-72
2021/09/14 00:27:48;;;;;;;13.07;10.30;;;;;;;;;;4994294;28;20479;-72
2021/09/14 00:30:14;;;;;;;11.10;9.90;;;;;;;;;;4996853;28;20474;-71
2021/09/14 00:32:40;;;;;;;11.10;9.90;;;;;;;;;;4994491;28;20776;-72
2021/09/14 00:35:07;;;;;;;10.80;9.10;;;;;;;;;;4996485;28;20415;-72
2021/09/14 00:37:33;;;;;;;11.17;10.07;;;;;;;;;;4995212;28;20452;-72
2021/09/14 00:39:59;;;;;;;11.00;9.70;;;;;;;;;;4995506;28;20432;-72
2021/09/14 00:42:25;;;;;;;11.00;9.70;;;;;;;;;;4993410;28;20429;-72
2021/09/14 00:44:51;;;;;;;10.63;9.53;;;;;;;;;;4994562;28;20487;-72
2021/09/14 00:47:17;;;;;;;11.17;9.80;;;;;;;;;;4995159;28;20455;-72
2021/09/14 00:49:43;;;;;;;11.70;9.30;;;;;;;;;;4993178;28;20539;-72
2021/09/14 00:52:09;;;;;;;20.53;10.60;;;;;;;;;;4995053;28;20415;-72
2021/09/14 00:54:37;;;;;;;12.80;10.30;;;;;;;;;;4994428;28;20927;-72
2021/09/14 00:57:04;;;;;;;12.43;10.63;;;;;;;;;;4995189;28;20820;-72
2021/09/14 00:59:31;;;;;;;11.57;9.60;;;;;;;;;;4994139;28;20448;-72
2021/09/14 01:01:57;;;;;;;11.90;9.40;;;;;;;;;;4994851;28;20492;-72
2021/09/14 01:04:23;;;;;;;12.90;9.90;;;;;;;;;;4993777;28;20436;-72
2021/09/14 01:06:49;;;;;;;12.77;10.63;;;;;;;;;;4994816;28;20889;-72
2021/09/14 01:09:16;;;;;;;14.33;10.40;;;;;;;;;;4993802;28;20468;-72
2021/09/14 01:11:42;;;;;;;10.47;9.47;;;;;;;;;;4994771;28;20496;-72
2021/09/14 01:14:09;;;;;;;11.40;9.17;;;;;;;;;;4989217;28;20457;-72
2021/09/14 01:16:35;;;;;;;12.40;10.23;;;;;;;;;;4975217;28;20410;-72
2021/09/14 01:19:03;;;;;;;11.70;10.03;;;;;;;;;;4980436;28;20932;-72
2021/09/14 01:21:29;;;;;;;12.40;10.63;;;;;;;;;;4993856;28;20863;-72
2021/09/14 01:23:55;;;;;;;13.50;10.47;;;;;;;;;;4993598;28;20456;-72
2021/09/14 01:26:22;;;;;;;13.63;10.87;;;;;;;;;;4994592;28;20540;-72
2021/09/14 01:28:48;;;;;;;18.73;10.50;;;;;;;;;;4993352;28;20502;-72
2021/09/14 01:31:14;;;;;;;13.03;11.43;;;;;;;;;;4994631;28;20461;-72
2021/09/14 01:33:40;;;;;;;13.50;10.73;;;;;;;;;;4989830;28;20420;-72
2021/09/14 01:36:06;;;;;;;15.93;11.07;;;;;;;;;;4975081;28;20773;-72
2021/09/14 01:38:32;;;;;;;13.00;10.63;;;;;;;;;;4937278;28;1144880;-72
2021/09/14 01:40:58;;;;;;;12.27;10.30;;;;;;;;;;4995353;28;20204;-72
2021/09/14 01:43:24;;;;;;;11.23;9.40;;;;;;;;;;4994414;28;20428;-72
2021/09/14 01:45:50;;;;;;;11.63;10.43;;;;;;;;;;4995097;28;20890;-72
2021/09/14 01:48:16;;;;;;;13.90;10.10;;;;;;;;;;4995147;28;20554;-72
2021/09/14 01:50:42;;;;;;;10.90;9.27;;;;;;;;;;4993105;28;20820;-72
2021/09/14 01:53:08;;;;;;;12.67;9.90;;;;;;;;;;4995102;28;20889;-72
2021/09/14 01:55:35;;;;;;;10.40;9.30;;;;;;;;;;4992298;28;20507;-72
2021/09/14 01:58:01;;;;;;;11.57;10.37;;;;;;;;;;4981411;28;20479;-72
2021/09/14 02:00:30;;;;;;;10.40;9.30;;;;;;;;;;4993878;28;20421;-72
2021/09/14 02:05:48;;;;;;;11.00;9.40;;;;;;;;;;4994251;28;20425;-72
2021/09/14 02:08:38;;;;;;;11.53;9.80;;;;;;;;;;4995008;28;20425;-72
2021/09/14 02:41:40;;;;;;;10.97;9.53;;;;;;;;;;4991558;28;20465;-72
2021/09/14 03:00:34;;;;;;;10.97;8.87;;;;;;;;;;4992963;28;20431;-72
2021/09/14 03:03:00;;;;;;;11.70;10.13;;;;;;;;;;4993999;28;20404;-72
2021/09/14 03:05:28;;;;;;;11.50;9.47;;;;;;;;;;4993046;28;20419;-72
2021/09/14 03:07:54;;;;;;;10.40;9.20;;;;;;;;;;4993840;28;20494;-72
2021/09/14 03:10:20;;;;;;;14.63;9.60;;;;;;;;;;4992871;28;20487;-72
2021/09/14 03:12:46;;;;;;;8.80;7.87;;;;;;;;;;4993822;28;20392;-72
2021/09/14 03:15:12;;;;;;;12.43;9.37;;;;;;;;;;4992693;28;20417;-72
2021/09/14 03:17:38;;;;;;;11.90;9.30;;;;;;;;;;4993857;28;20475;-72
2021/09/14 03:20:05;;;;;;;11.80;9.53;;;;;;;;;;4991340;28;20863;-72
2021/09/14 03:22:31;;;;;;;12.40;9.20;;;;;;;;;;4993846;28;20401;-72
2021/09/14 03:24:57;;;;;;;10.30;9.23;;;;;;;;;;4992519;28;20464;-72
2021/09/14 03:27:23;;;;;;;9.77;8.10;;;;;;;;;;4986931;28;20432;-72
2021/09/14 03:29:49;;;;;;;12.67;9.60;;;;;;;;;;4986329;28;20876;-72
2021/09/14 03:32:16;;;;;;;11.00;8.33;;;;;;;;;;4991912;28;20451;-72
2021/09/14 03:34:42;;;;;;;12.30;9.27;;;;;;;;;;4992314;28;20444;-72
2021/09/14 03:37:08;;;;;;;10.93;9.17;;;;;;;;;;4993555;28;20460;-72
2021/09/14 03:39:34;;;;;;;16.60;10.43;;;;;;;;;;4982754;28;20488;-72
2021/09/14 03:42:01;;;;;;;13.07;9.70;;;;;;;;;;4993566;28;20393;-71
2021/09/14 03:44:27;;;;;;;10.07;8.23;;;;;;;;;;4993395;28;20396;-72
2021/09/14 03:46:53;;;;;;;15.83;10.03;;;;;;;;;;4992451;28;20519;-71
2021/09/14 03:49:19;;;;;;;10.97;9.50;;;;;;;;;;4993379;28;20434;-71
2021/09/14 03:51:45;;;;;;;13.47;8.77;;;;;;;;;;4992650;28;20451;-71
2021/09/14 03:54:11;;;;;;;12.33;9.20;;;;;;;;;;4993410;28;20408;-71
2021/09/14 03:56:37;;;;;;;10.13;8.17;;;;;;;;;;4993373;28;20429;-71
2021/09/14 03:59:04;;;;;;;13.30;10.47;;;;;;;;;;4995766;28;20448;-71
2021/09/14 04:01:34;;;;;;;10.47;8.90;;;;;;;;;;4996385;28;20478;-71
2021/09/14 04:04:50;;;;;;;10.80;8.17;;;;;;;;;;4997188;28;20917;-72
2021/09/14 04:09:41;;;;;;;12.43;9.40;;;;;;;;;;4960944;28;20513;-72
2021/09/14 04:12:08;;;;;;;10.27;8.90;;;;;;;;;;4994044;28;20797;-72
2021/09/14 04:14:34;;;;;;;10.03;8.70;;;;;;;;;;4995551;28;20418;-72
2021/09/14 04:17:00;;;;;;;13.10;9.23;;;;;;;;;;4995904;28;20460;-72
2021/09/14 04:19:27;;;;;;;11.27;9.20;;;;;;;;;;4996885;28;20811;-72
2021/09/14 04:21:53;;;;;;;9.87;7.70;;;;;;;;;;4983329;28;20421;-72
2021/09/14 04:24:19;;;;;;;11.40;8.60;;;;;;;;;;4977361;28;20408;-72
2021/09/14 04:26:45;;;;;;;18.03;8.87;;;;;;;;;;4991605;28;20416;-72
2021/09/14 04:29:11;;;;;;;12.60;8.73;;;;;;;;;;4995934;28;20436;-72
2021/09/14 04:31:37;;;;;;;10.40;8.50;;;;;;;;;;4994637;28;20417;-72
2021/09/14 04:34:03;;;;;;;11.73;9.27;;;;;;;;;;4995661;28;20412;-73
2021/09/14 04:36:29;;;;;;;14.03;8.60;;;;;;;;;;4995514;28;20412;-72
2021/09/14 04:38:55;;;;;;;13.20;8.40;;;;;;;;;;5029694;23;20498;-64
2021/09/14 04:41:21;;;;;;;9.80;8.10;;;;;;;;;;5019384;28;20479;-65
2021/09/14 04:43:47;;;;;;;11.73;8.33;;;;;;;;;;5019666;28;20388;-63
2021/09/14 04:46:13;;;;;;;9.47;8.27;;;;;;;;;;5017428;28;20470;-65
2021/09/14 04:48:39;;;;;;;8.23;7.33;;;;;;;;;;5019445;28;20416;-65
2021/09/14 04:51:05;;;;;;;9.03;7.90;;;;;;;;;;5018203;28;20908;-65
2021/09/14 04:53:32;;;;;;;11.13;9.13;;;;;;;;;;5019980;28;20388;-65
2021/09/14 04:55:58;;;;;;;10.47;8.90;;;;;;;;;;5018317;28;20466;-65
2021/09/14 04:58:24;;;;;;;11.03;8.70;;;;;;;;;;5019131;28;20462;-65
2021/09/14 05:00:50;;;;;;;10.17;8.77;;;;;;;;;;5018940;28;20482;-65
2021/09/14 05:03:16;;;;;;;9.67;8.43;;;;;;;;;;5019450;28;20479;-66
2021/09/14 05:05:42;;;;;;;11.40;9.57;;;;;;;;;;5018124;28;20900;-65
2021/09/14 05:08:08;;;;;;;10.00;9.00;;;;;;;;;;5018665;28;20466;-65
2021/09/14 05:10:34;;;;;;;11.30;7.70;;;;;;;;;;5019175;28;20407;-65
2021/09/14 05:13:03;;;;;;;9.17;7.90;;;;;;;;;;5019172;28;20424;-65
2021/09/14 05:15:29;;;;;;;18.67;9.43;;;;;;;;;;5019623;28;20846;-63
2021/09/14 05:17:55;;;;;;;10.33;8.80;;;;;;;;;;5018046;28;20456;-65
2021/09/14 05:20:21;;;;;;;9.60;8.63;;;;;;;;;;5019587;28;20503;-66
2021/09/14 05:22:52;;;;;;;9.70;8.70;;;;;;;;;;5016974;28;20423;-65
2021/09/14 05:25:18;;;;;;;13.00;8.40;;;;;;;;;;5019797;28;20392;-66
2021/09/14 05:27:44;;;;;;;11.13;8.30;;;;;;;;;;5018198;28;20431;-65
2021/09/14 05:30:11;;;;;;;9.63;8.40;;;;;;;;;;5019574;28;20490;-65
2021/09/14 05:32:37;;;;;;;10.00;8.97;;;;;;;;;;5018509;28;20428;-65
2021/09/14 05:35:03;;;;;;;12.33;8.80;;;;;;;;;;5019360;28;20456;-65
2021/09/14 05:37:29;;;;;;;14.07;9.57;;;;;;;;;;5018483;28;20462;-65
2021/09/14 05:39:55;;;;;;;13.30;7.70;;;;;;;;;;5016872;28;20462;-65
2021/09/14 05:42:21;;;;;;;10.73;8.10;;;;;;;;;;5017868;28;20462;-66
2021/09/14 05:44:47;;;;;;;12.90;8.57;;;;;;;;;;5017899;28;20408;-65
2021/09/14 05:47:13;;;;;;;10.97;8.03;;;;;;;;;;5012890;28;20435;-64
2021/09/14 05:49:39;;;;;;;12.80;8.03;;;;;;;;;;5004573;28;20475;-65
2021/09/14 05:52:05;;;;;;;10.03;7.80;;;;;;;;;;5014143;28;20522;-65
2021/09/14 05:54:31;;;;;;;11.23;8.47;;;;;;;;;;5017422;28;20427;-65
2021/09/14 05:56:57;;;;;;;17.13;8.60;;;;;;;;;;5009494;28;20459;-65
2021/09/14 05:59:23;;;;;;;30.67;10.43;;;;;;;;;;5018578;28;20509;-65
2021/09/14 06:01:49;;;;;;;49.57;12.47;;;;;;;;;;5016888;28;20426;-65
2021/09/14 06:04:15;;;;;;;94.67;22.10;;;;;;;;;;5017084;28;20436;-65
2021/09/14 06:06:42;;;;;;;19.20;11.00;;;;;;;;;;5016884;28;20518;-65
2021/09/14 06:09:08;;;;;;;9.90;7.23;;;;;;;;;;5018644;28;20424;-64
2021/09/14 06:11:34;;;;;;;10.90;7.27;;;;;;;;;;5018550;28;20474;-65
2021/09/14 06:14:00;;;;;;;26.43;9.10;;;;;;;;;;4998985;28;20465;-64
2021/09/14 06:16:26;;;;;;;46.23;12.43;;;;;;;;;;5015657;28;20439;-64
2021/09/14 06:18:52;;;;;;;11.90;7.53;;;;;;;;;;5017507;28;20573;-64
2021/09/14 06:21:18;;;;;;;17.50;8.63;;;;;;;;;;5016700;28;20430;-64
2021/09/14 06:23:45;;;;;;;18.90;8.60;;;;;;;;;;5018569;28;20999;-64
2021/09/14 06:26:11;;;;;;;8.17;6.77;;;;;;;;;;5016683;28;20826;-64
2021/09/14 06:28:37;;;;;;;10.30;8.10;;;;;;;;;;5017218;28;20431;-65
2021/09/14 06:31:03;;;;;;;12.00;7.77;;;;;;;;;;5014417;28;20434;-66
2021/09/14 06:33:29;;;;;;;9.43;7.70;;;;;;;;;;5013902;28;20419;-66
2021/09/14 06:35:55;;;;;;;12.77;7.17;;;;;;;;;;5013691;28;20411;-65
2021/09/14 06:38:21;;;;;;;14.97;8.70;;;;;;;;;;5012849;28;20554;-66
2021/09/14 06:40:47;;;;;;;11.00;7.00;;;;;;;;;;5013650;28;20435;-66
2021/09/14 06:43:13;;;;;;;7.37;6.57;;;;;;;;;;5012375;28;20510;-64
2021/09/14 06:45:39;;;;;;;11.10;6.63;;;;;;;;;;5013817;28;20408;-64
2021/09/14 06:48:05;;;;;;;6.27;5.63;;;;;;;;;;5012492;28;20510;-66
2021/09/14 06:50:31;;;;;;;7.80;6.03;;;;;;;;;;5013754;28;20404;-65
2021/09/14 06:52:57;;;;;;;7.53;6.83;;;;;;;;;;4995064;28;20430;-65
2021/09/14 06:55:23;;;;;;;8.10;6.30;;;;;;;;;;5013320;28;20554;-65
2021/09/14 06:57:49;;;;;;;10.50;6.13;;;;;;;;;;5011846;28;20542;-65
2021/09/14 07:00:15;;;;;;;8.23;6.07;;;;;;;;;;5002462;28;20901;-66
2021/09/14 07:02:41;;;;;;;8.57;6.20;;;;;;;;;;5006533;28;20466;-65
2021/09/14 07:05:08;;;;;;;7.23;6.00;;;;;;;;;;5010347;28;20408;-65
2021/09/14 07:07:34;;;;;;;9.73;7.70;;;;;;;;;;5000753;28;20446;-62
2021/09/14 07:10:03;;;;;;;11.00;6.30;;;;;;;;;;4999467;28;20462;-61
2021/09/14 07:12:29;;;;;;;8.47;6.27;;;;;;;;;;5007539;28;20665;-61
2021/09/14 07:14:55;;;;;;;18.50;7.50;;;;;;;;;;5006980;28;20419;-61
2021/09/14 07:17:21;;;;;;;79.10;18.53;;;;;;;;;;5008670;28;20463;-61
2021/09/14 07:19:47;;;;;;;20.60;9.80;;;;;;;;;;5011046;28;20446;-63
2021/09/14 07:22:13;;;;;;;14.10;7.17;;;;;;;;;;5003420;28;20511;-64
2021/09/14 07:24:39;;;;;;;8.23;5.70;;;;;;;;;;5007680;28;20462;-63
2021/09/14 07:27:05;;;;;;;10.60;5.50;;;;;;;;;;5006041;28;20431;-65
2021/09/14 07:29:33;;;;;;;7.40;5.87;;;;;;;;;;5009220;28;20993;-66
2021/09/14 07:31:59;;;;;;;6.93;5.37;;;;;;;;;;5009463;28;20438;-66
2021/09/14 07:34:25;;;;;;;7.87;5.90;;;;;;;;;;5012643;28;20415;-65
2021/09/14 07:36:51;;;;;;;9.47;5.90;;;;;;;;;;5004888;28;20783;-65
2021/09/14 07:39:17;;;;;;;10.77;5.93;;;;;;;;;;5011246;28;20886;-63
2021/09/14 07:41:43;;;;;;;13.83;6.53;;;;;;;;;;5011791;28;20911;-64
2021/09/14 07:44:09;;;;;;;10.67;5.50;;;;;;;;;;5014930;28;20415;-64
2021/09/14 07:46:35;;;;;;;57.00;14.30;;;;;;;;;;5013824;28;20411;-64
2021/09/14 07:49:01;;;;;;;14.00;6.90;;;;;;;;;;5015255;28;20443;-64
2021/09/14 07:51:29;;;;;;;7.40;5.73;;;;;;;;;;5013204;28;20917;-65
2021/09/14 07:53:55;;;;;;;7.13;5.77;;;;;;;;;;5011184;28;20419;-64
2021/09/14 07:56:21;;;;;;;8.00;5.57;;;;;;;;;;5011855;28;20455;-64
2021/09/14 07:58:47;;;;;;;9.27;6.10;;;;;;;;;;5013076;28;20482;-64
2021/09/14 08:01:13;;;;;;;6.47;5.00;;;;;;;;;;5013214;28;21175;-62
2021/09/14 08:03:39;;;;;;;14.70;6.80;;;;;;;;;;5010227;28;20916;-64
2021/09/14 08:06:05;;;;;;;10.27;5.63;;;;;;;;;;5012083;28;20438;-64
2021/09/14 08:08:31;;;;;;;7.30;5.10;;;;;;;;;;5012565;28;20762;-63
2021/09/14 08:10:57;;;;;;;6.53;5.10;;;;;;;;;;5014438;28;20766;-66
2021/09/14 08:13:24;;;;;;;8.03;5.43;;;;;;;;;;5012541;28;20440;-66
2021/09/14 08:15:51;;;;;;;6.37;5.33;;;;;;;;;;5013020;28;20470;-67
2021/09/14 08:18:21;;;;;;;7.63;5.50;;;;;;;;;;5011730;28;20478;-65
2021/09/14 08:20:47;;;;;;;7.27;5.10;;;;;;;;;;5012832;28;20473;-66
2021/09/14 08:23:33;;;;;;;6.00;4.80;;;;;;;;;;5013448;28;20424;-66
2021/09/14 08:26:00;;;;;;;7.13;5.30;;;;;;;;;;5014842;28;20431;-65
2021/09/14 08:28:26;;;;;;;7.40;5.17;;;;;;;;;;4996009;28;20450;-65
2021/09/14 08:30:52;;;;;;;6.60;4.87;;;;;;;;;;5016889;28;20423;-66
2021/09/14 08:33:18;;;;;;;7.07;5.27;;;;;;;;;;5016833;28;20435;-67
2021/09/14 08:35:44;;;;;;;5.90;5.30;;;;;;;;;;5017529;28;20951;-66
2021/09/14 08:38:10;;;;;;;5.60;4.73;;;;;;;;;;5016990;28;20451;-66
2021/09/14 08:40:36;;;;;;;7.40;5.67;;;;;;;;;;5017664;28;20458;-65
2021/09/14 08:43:03;;;;;;;5.90;4.43;;;;;;;;;;5009169;28;20424;-67
2021/09/14 08:45:29;;;;;;;5.03;4.27;;;;;;;;;;5017491;28;20430;-65
2021/09/14 08:47:55;;;;;;;6.67;4.30;;;;;;;;;;5018091;28;20433;-66
2021/09/14 08:50:23;;;;;;;7.13;4.83;;;;;;;;;;5016404;28;20419;-65
2021/09/14 08:52:50;;;;;;;7.20;5.80;;;;;;;;;;5017250;28;20427;-65
2021/09/14 08:55:16;;;;;;;6.17;5.40;;;;;;;;;;5015093;28;20430;-66
2021/09/14 08:58:05;;;;;;;6.43;4.50;;;;;;;;;;5017376;28;20455;-65
2021/09/14 09:00:35;;;;;;;5.67;4.80;;;;;;;;;;5016737;28;20415;-66
2021/09/14 09:03:02;;;;;;;5.50;4.60;;;;;;;;;;5015177;28;20431;-66
2021/09/14 09:05:41;;;;;;;11.20;6.93;;;;;;;;;;5013850;28;20431;-66
2021/09/14 09:08:20;;;;;;;6.67;5.50;;;;;;;;;;5016810;28;20435;-66
2021/09/14 09:10:59;;;;;;;11.73;3.70;;;;;;;;;;5017700;28;20438;-66
2021/09/14 09:13:25;;;;;;;6.43;4.87;;;;;;;;;;5013511;28;20431;-66
2021/09/14 09:15:51;;;;;;;7.07;5.33;;;;;;;;;;5014591;28;20423;-66
2021/09/14 09:18:17;;;;;;;5.13;4.17;;;;;;;;;;5014079;28;20470;-66
2021/09/14 09:20:44;;;;;;;5.30;4.80;;;;;;;;;;5016732;28;20415;-66
2021/09/14 09:23:27;;;;;;;5.30;3.90;;;;;;;;;;5014191;28;20447;-66
2021/09/14 09:26:14;;;;;;;6.30;4.90;;;;;;;;;;5016233;28;20419;-65
2021/09/14 09:28:40;;;;;;;6.50;4.77;;;;;;;;;;5011746;28;20779;-67
2021/09/14 09:31:09;;;;;;;5.10;4.60;;;;;;;;;;5010417;28;20423;-67
2021/09/14 09:33:36;;;;;;;7.40;5.07;;;;;;;;;;5013855;28;20432;-66
2021/09/14 09:36:03;;;;;;;5.00;4.43;;;;;;;;;;5015055;28;20999;-66
2021/09/14 09:38:29;;;;;;;5.33;4.60;;;;;;;;;;5014649;28;20467;-66
2021/09/14 09:40:57;;;;;;;8.10;5.00;;;;;;;;;;5015511;28;20827;-67
2021/09/14 09:43:30;;;;;;;5.27;4.67;;;;;;;;;;5013575;28;20939;-66
2021/09/14 09:46:07;;;;;;;5.47;3.90;;;;;;;;;;5015563;28;20411;-66
2021/09/14 09:48:34;;;;;;;6.13;4.40;;;;;;;;;;5015759;28;20483;-66
2021/09/14 09:51:00;;;;;;;4.80;4.20;;;;;;;;;;5015334;28;20431;-66
2021/09/14 09:53:27;;;;;;;6.10;4.93;;;;;;;;;;5014633;28;20777;-66
2021/09/14 09:55:53;;;;;;;7.03;4.50;;;;;;;;;;5014279;28;20474;-65
2021/09/14 09:58:19;;;;;;;5.27;4.20;;;;;;;;;;5014295;28;20471;-66
2021/09/14 10:00:53;;;;;;;7.43;4.63;;;;;;;;;;5015975;28;20454;-66
2021/09/14 10:03:24;;;;;;;7.20;4.30;;;;;;;;;;4996699;28;20861;-67
2021/09/14 10:05:54;;;;;;;5.10;4.10;;;;;;;;;;5014056;28;20430;-66
2021/09/14 10:08:22;;;;;;;5.73;4.30;;;;;;;;;;5013584;28;20451;-66
2021/09/14 10:10:54;;;;;;;5.80;4.10;;;;;;;;;;5015730;28;20431;-65
2021/09/14 10:13:29;;;;;;;5.47;4.00;;;;;;;;;;5012889;28;20774;-66
2021/09/14 10:15:55;;;;;;;6.70;4.23;;;;;;;;;;5007739;28;20430;-65
2021/09/14 10:18:26;;;;;;;4.20;3.47;;;;;;;;;;5009580;28;20475;-65
2021/09/14 10:20:52;;;;;;;5.40;4.23;;;;;;;;;;5014537;28;20415;-66
2021/09/14 10:23:20;;;;;;;5.23;4.50;;;;;;;;;;5015361;28;20501;-66
2021/09/14 10:25:50;;;;;;;5.20;4.60;;;;;;;;;;5016678;28;20420;-66
2021/09/14 10:28:17;;;;;;;4.63;4.00;;;;;;;;;;5015543;28;20545;-66
2021/09/14 10:30:43;;;;;;;8.07;4.50;;;;;;;;;;5019099;28;20782;-66
2021/09/14 10:33:19;;;;;;;5.40;4.60;;;;;;;;;;5014386;28;20935;-66
2021/09/14 10:35:46;;;;;;;5.27;4.43;;;;;;;;;;5016057;28;20470;-66
2021/09/14 10:38:13;;;;;;;4.60;4.10;;;;;;;;;;5013978;28;20475;-66
2021/09/14 10:40:39;;;;;;;5.47;4.60;;;;;;;;;;5049894;23;20526;-69
2021/09/14 10:43:05;;;;;;;8.43;4.60;;;;;;;;;;5047646;28;20797;-67
2021/09/14 10:45:40;;;;;;;4.90;4.40;;;;;;;;;;5047114;28;20405;-67
2021/09/14 10:48:06;;;;;;;4.90;4.40;;;;;;;;;;5044753;28;21501;-67
2021/09/14 10:50:32;;;;;;;5.73;4.17;;;;;;;;;;5029492;28;20501;-68
2021/09/14 10:52:59;;;;;;;4.40;3.90;;;;;;;;;;5027450;28;20980;-68
2021/09/14 10:55:26;;;;;;;5.90;4.53;;;;;;;;;;5030306;28;20418;-68
2021/09/14 10:57:52;;;;;;;4.73;3.90;;;;;;;;;;5027936;28;20545;-68
2021/09/14 11:00:20;;;;;;;4.80;4.10;;;;;;;;;;5028567;28;20495;-68
2021/09/14 11:02:59;;;;;;;4.97;4.47;;;;;;;;;;5026335;28;20426;-69
2021/09/14 11:05:29;;;;;;;5.27;4.50;;;;;;;;;;5023274;28;20414;-68
2021/09/14 11:07:59;;;;;;;5.90;4.47;;;;;;;;;;5024772;28;20415;-68
2021/09/14 11:10:27;;;;;;;5.50;4.63;;;;;;;;;;5028091;28;20495;-68
2021/09/14 11:12:53;;;;;;;8.13;4.10;;;;;;;;;;5020593;28;20430;-68
2021/09/14 11:15:19;;;;;;;5.17;4.13;;;;;;;;;;5027490;28;20426;-67
2021/09/14 11:17:48;;;;;;;4.67;4.00;;;;;;;;;;5009325;28;20866;-68
2021/09/14 11:20:18;;;;;;;5.90;4.53;;;;;;;;;;5027625;28;20951;-69
2021/09/14 11:22:44;;;;;;;4.30;3.53;;;;;;;;;;5027829;28;20493;-67
2021/09/14 11:25:15;;;;;;;8.17;4.90;;;;;;;;;;5028169;28;20422;-67
2021/09/14 11:27:42;;;;;;;5.50;4.47;;;;;;;;;;5024112;28;20954;-68
2021/09/14 11:30:12;;;;;;;5.87;4.53;;;;;;;;;;5025597;28;20489;-67
2021/09/14 11:32:39;;;;;;;4.23;3.70;;;;;;;;;;5019723;28;20430;-68
2021/09/14 11:35:09;;;;;;;4.60;4.00;;;;;;;;;;5009218;28;20453;-68
2021/09/14 11:37:35;;;;;;;5.40;3.90;;;;;;;;;;5027945;28;20505;-67
2021/09/14 11:40:01;;;;;;;7.90;4.60;;;;;;;;;;5027350;28;20838;-69
2021/09/14 11:42:27;;;;;;;4.50;3.33;;;;;;;;;;5030198;28;20526;-68
2021/09/14 11:45:02;;;;;;;4.10;3.70;;;;;;;;;;5026864;28;20428;-68
2021/09/14 11:47:28;;;;;;;5.30;4.57;;;;;;;;;;5024106;28;20496;-68
2021/09/14 11:49:54;;;;;;;5.00;4.10;;;;;;;;;;5027616;28;20442;-69
2021/09/14 11:52:20;;;;;;;4.63;4.00;;;;;;;;;;5007517;28;20437;-68
2021/09/14 11:54:46;;;;;;;5.17;4.07;;;;;;;;;;5024764;28;20792;-68
2021/09/14 11:57:17;;;;;;;5.30;4.10;;;;;;;;;;5028913;28;20871;-68
2021/09/14 11:59:43;;;;;;;5.07;4.27;;;;;;;;;;5007813;28;20446;-68
2021/09/14 12:02:10;;;;;;;5.07;4.30;;;;;;;;;;5027784;28;20464;-68
2021/09/14 12:04:36;;;;;;;6.73;4.77;;;;;;;;;;5022895;28;20511;-69
2021/09/14 12:07:02;;;;;;;5.77;4.80;;;;;;;;;;5030977;28;21123;-68
2021/09/14 12:09:29;;;;;;;5.07;4.57;;;;;;;;;;5027814;28;20529;-68
2021/09/14 12:12:06;;;;;;;5.47;4.43;;;;;;;;;;5024950;28;20779;-68
2021/09/14 12:14:32;;;;;;;5.20;4.33;;;;;;;;;;5025146;28;20437;-69
2021/09/14 12:17:02;;;;;;;5.10;4.40;;;;;;;;;;5019390;28;20452;-71
2021/09/14 12:19:29;;;;;;;4.63;3.90;;;;;;;;;;5027840;28;20500;-69
2021/09/14 12:21:56;;;;;;;6.13;5.23;;;;;;;;;;5031147;28;20894;-68
2021/09/14 12:24:22;;;;;;;10.43;7.50;;;;;;;;;;5029908;28;20430;-70
2021/09/14 12:26:51;;;;;;;5.30;4.03;;;;;;;;;;5031423;28;20461;-69
2021/09/14 12:29:18;;;;;;;5.10;4.10;;;;;;;;;;5026172;28;20450;-69
2021/09/14 12:31:45;;;;;;;5.40;4.13;;;;;;;;;;5030452;28;20418;-68
2021/09/14 12:34:11;;;;;;;5.20;4.60;;;;;;;;;;5031143;28;20532;-69
2021/09/14 12:36:39;;;;;;;5.27;4.30;;;;;;;;;;5032909;28;20429;-69
2021/09/14 12:39:05;;;;;;;4.70;4.10;;;;;;;;;;5032200;28;20455;-69
2021/09/14 12:41:31;;;;;;;7.40;4.77;;;;;;;;;;5014209;28;20434;-68
2021/09/14 12:43:57;;;;;;;5.83;5.17;;;;;;;;;;5015870;28;20481;-68
2021/09/14 12:46:23;;;;;;;7.20;4.70;;;;;;;;;;5031610;28;20937;-69
2021/09/14 12:48:49;;;;;;;5.20;3.93;;;;;;;;;;5031671;28;20430;-68
2021/09/14 12:51:15;;;;;;;5.47;4.90;;;;;;;;;;5029074;28;20446;-69
2021/09/14 12:53:42;;;;;;;5.67;4.60;;;;;;;;;;5030907;28;20794;-68
2021/09/14 12:56:08;;;;;;;5.13;4.63;;;;;;;;;;5031935;28;20454;-70
2021/09/14 12:58:34;;;;;;;8.10;5.07;;;;;;;;;;5032872;28;20449;-68
2021/09/14 13:01:01;;;;;;;6.53;4.83;;;;;;;;;;5028726;28;20473;-69
2021/09/14 13:03:27;;;;;;;4.90;4.00;;;;;;;;;;5030401;28;20794;-68
2021/09/14 13:05:53;;;;;;;4.97;4.47;;;;;;;;;;5033740;28;20440;-69
2021/09/14 13:08:19;;;;;;;4.87;4.37;;;;;;;;;;5030796;28;20438;-69
2021/09/14 13:10:45;;;;;;;5.03;4.53;;;;;;;;;;5030272;28;20454;-68
2021/09/14 13:16:11;;;;;;;6.10;4.33;;;;;;;;;;5030871;28;20453;-68
2021/09/14 13:18:41;;;;;;;8.20;4.10;;;;;;;;;;5037508;28;20455;-68
2021/09/14 13:21:08;;;;;;;7.27;4.83;;;;;;;;;;5034320;28;20803;-69
2021/09/14 13:23:34;;;;;;;5.60;4.60;;;;;;;;;;5028193;28;20525;-70
2021/09/14 13:26:01;;;;;;;5.07;4.40;;;;;;;;;;5029710;28;20771;-69
2021/09/14 13:28:27;;;;;;;8.00;4.63;;;;;;;;;;5012338;28;20418;-69
2021/09/14 13:30:53;;;;;;;7.70;4.87;;;;;;;;;;5029079;28;20928;-68
2021/09/14 13:33:19;;;;;;;5.20;4.70;;;;;;;;;;5029456;28;20513;-70
2021/09/14 13:35:45;;;;;;;5.93;4.23;;;;;;;;;;5028310;28;20814;-68
2021/09/14 13:38:11;;;;;;;5.80;4.30;;;;;;;;;;5029338;28;20575;-69
2021/09/14 13:40:40;;;;;;;6.73;4.90;;;;;;;;;;5029978;28;20458;-68
2021/09/14 13:43:06;;;;;;;5.10;4.53;;;;;;;;;;5028249;28;20760;-69
2021/09/14 13:48:20;;;;;;;4.50;4.10;;;;;;;;;;5029595;28;20394;-69
2021/09/14 13:50:46;;;;;;;4.73;4.23;;;;;;;;;;5011525;28;20450;-68
2021/09/14 13:53:12;;;;;;;6.30;5.00;;;;;;;;;;5031178;28;20427;-68
2021/09/14 13:55:38;;;;;;;7.33;4.67;;;;;;;;;;5030601;28;20438;-68
2021/09/14 13:58:04;;;;;;;5.57;4.17;;;;;;;;;;5030715;28;20946;-68
2021/09/14 14:00:30;;;;;;;5.70;4.70;;;;;;;;;;5027975;28;20446;-68
2021/09/14 14:02:56;;;;;;;5.37;3.90;;;;;;;;;;5027780;28;20425;-68
2021/09/14 14:05:22;;;;;;;4.70;4.20;;;;;;;;;;5026789;28;20501;-68
2021/09/14 14:07:48;;;;;;;6.17;5.03;;;;;;;;;;5029098;28;20958;-68
2021/09/14 14:10:14;;;;;;;6.30;4.67;;;;;;;;;;5030278;28;20477;-68
2021/09/14 14:12:40;;;;;;;5.87;5.27;;;;;;;;;;5011353;28;20794;-68
2021/09/14 14:15:07;;;;;;;5.00;4.50;;;;;;;;;;5030259;28;20419;-68
2021/09/14 14:17:33;;;;;;;5.30;4.57;;;;;;;;;;5009032;28;20956;-68
2021/09/14 14:19:59;;;;;;;5.70;4.57;;;;;;;;;;5026941;28;20457;-68
2021/09/14 14:22:25;;;;;;;5.90;5.30;;;;;;;;;;5027171;28;20882;-68
2021/09/14 14:24:51;;;;;;;5.53;4.07;;;;;;;;;;5029866;28;20484;-68
2021/09/14 14:27:17;;;;;;;6.50;5.40;;;;;;;;;;5028170;28;20767;-68
2021/09/14 14:29:43;;;;;;;5.90;4.53;;;;;;;;;;5030112;28;20442;-68
2021/09/14 14:32:09;;;;;;;5.13;4.20;;;;;;;;;;5027897;28;20421;-68
2021/09/14 14:34:35;;;;;;;7.23;4.30;;;;;;;;;;5029387;28;20500;-68
2021/09/14 14:37:01;;;;;;;6.83;5.10;;;;;;;;;;5029911;28;20921;-68
2021/09/14 14:39:27;;;;;;;4.97;4.47;;;;;;;;;;5027560;28;20977;-68
2021/09/14 14:41:53;;;;;;;5.43;4.27;;;;;;;;;;5028309;28;20419;-68
2021/09/14 14:44:19;;;;;;;5.57;4.87;;;;;;;;;;5029344;28;20431;-68
2021/09/14 14:46:45;;;;;;;9.40;5.10;;;;;;;;;;5028756;28;20410;-68
2021/09/14 14:49:11;;;;;;;5.00;4.03;;;;;;;;;;5027788;28;20868;-68
2021/09/14 14:51:41;;;;;;;8.10;4.67;;;;;;;;;;5029768;28;20414;-68
2021/09/14 14:54:07;;;;;;;6.10;5.50;;;;;;;;;;5029198;28;21001;-68
2021/09/14 14:56:33;;;;;;;5.50;4.73;;;;;;;;;;5030462;28;20414;-69
2021/09/14 14:58:59;;;;;;;9.63;4.40;;;;;;;;;;5029314;28;20566;-68
2021/09/14 15:01:25;;;;;;;5.60;4.73;;;;;;;;;;5027552;28;20440;-68
2021/09/14 15:03:51;;;;;;;6.13;4.90;;;;;;;;;;5026085;28;20488;-68
2021/09/14 15:06:17;;;;;;;5.07;4.10;;;;;;;;;;5028956;28;20476;-68
2021/09/14 15:08:43;;;;;;;5.80;5.10;;;;;;;;;;5025840;28;20418;-68
2021/09/14 15:11:09;;;;;;;7.37;4.83;;;;;;;;;;5028447;28;20441;-68
2021/09/14 15:13:35;;;;;;;5.60;4.73;;;;;;;;;;5028000;28;20933;-68
2021/09/14 15:16:01;;;;;;;5.73;3.93;;;;;;;;;;5029087;28;20894;-68
2021/09/14 15:18:28;;;;;;;5.20;4.60;;;;;;;;;;5028383;28;20901;-68
2021/09/14 15:20:54;;;;;;;5.20;4.70;;;;;;;;;;5027869;28;20807;-68
2021/09/14 15:23:21;;;;;;;5.10;4.60;;;;;;;;;;5028546;28;20457;-68
2021/09/14 15:25:49;;;;;;;8.40;4.70;;;;;;;;;;5029268;28;20433;-68
2021/09/14 15:28:15;;;;;;;5.60;4.43;;;;;;;;;;5024907;28;20629;-69
2021/09/14 15:30:41;;;;;;;4.57;3.83;;;;;;;;;;5023018;28;20508;-68
2021/09/14 15:33:07;;;;;;;5.70;5.03;;;;;;;;;;5024870;28;20453;-69